Terminal Aerodrome Forecast
Issued by NWS Flagstaff, AZ

Home | Current Version | Previous Version | Text Only | Print | Product List | Glossary On
Versions: 1 2 3 4 5 6 7 8 9 10 11 12 13 14 15 16
000
FTUS45 KFGZ 231500 AAA
TAFFLG
TAF AMD
KFLG 231559Z 2316/2412 21007KT 6SM FU SCT120
      TEMPO 2316/2318 3SM FU
     FM231800 20010KT P6SM BKN090
      TEMPO 2319/2323 VRB10G20KT -TSRA BKN070CB
     FM240230 VRB04KT P6SM BKN100=

USA.gov is the U.S. government's official web portal to all federal, state and local government web resources and services.